sensor_id;sensor_type;location;lat;lon;timestamp;P1;durP1;ratioP1;P2;durP2;ratioP2
25553;SDS011;13446;50.926;5.332;2024-03-06T00:00:47;12.35;;;6.65;;
25553;SDS011;13446;50.926;5.332;2024-03-06T00:03:13;13.38;;;6.82;;
25553;SDS011;13446;50.926;5.332;2024-03-06T00:05:39;7.88;;;6.28;;
25553;SDS011;13446;50.926;5.332;2024-03-06T00:08:04;8.13;;;6.13;;
25553;SDS011;13446;50.926;5.332;2024-03-06T00:10:31;10.52;;;6.15;;
25553;SDS011;13446;50.926;5.332;2024-03-06T00:12:56;8.60;;;6.05;;
25553;SDS011;13446;50.926;5.332;2024-03-06T00:15:22;16.92;;;6.03;;
25553;SDS011;13446;50.926;5.332;2024-03-06T00:17:48;7.65;;;6.00;;
25553;SDS011;13446;50.926;5.332;2024-03-06T00:20:14;12.45;;;5.57;;
25553;SDS011;13446;50.926;5.332;2024-03-06T00:22:40;7.55;;;5.70;;
25553;SDS011;13446;50.926;5.332;2024-03-06T00:25:06;9.38;;;6.10;;
25553;SDS011;13446;50.926;5.332;2024-03-06T00:27:33;8.13;;;5.82;;
25553;SDS011;13446;50.926;5.332;2024-03-06T00:29:59;11.68;;;5.80;;
25553;SDS011;13446;50.926;5.332;2024-03-06T00:32:24;11.40;;;6.13;;
25553;SDS011;13446;50.926;5.332;2024-03-06T00:34:50;9.38;;;6.60;;
25553;SDS011;13446;50.926;5.332;2024-03-06T00:37:17;10.48;;;6.68;;
25553;SDS011;13446;50.926;5.332;2024-03-06T00:39:44;12.88;;;6.68;;
25553;SDS011;13446;50.926;5.332;2024-03-06T00:42:10;10.70;;;6.60;;
25553;SDS011;13446;50.926;5.332;2024-03-06T00:44:38;12.50;;;7.03;;
25553;SDS011;13446;50.926;5.332;2024-03-06T00:47:04;10.63;;;7.20;;
25553;SDS011;13446;50.926;5.332;2024-03-06T00:49:30;10.48;;;7.38;;
25553;SDS011;13446;50.926;5.332;2024-03-06T00:51:56;11.68;;;7.15;;
25553;SDS011;13446;50.926;5.332;2024-03-06T00:54:21;11.30;;;7.20;;
25553;SDS011;13446;50.926;5.332;2024-03-06T00:56:47;13.60;;;7.20;;
25553;SDS011;13446;50.926;5.332;2024-03-06T00:59:13;11.82;;;7.03;;
25553;SDS011;13446;50.926;5.332;2024-03-06T01:01:39;10.35;;;7.20;;
25553;SDS011;13446;50.926;5.332;2024-03-06T01:04:06;12.50;;;7.28;;
25553;SDS011;13446;50.926;5.332;2024-03-06T01:06:33;11.70;;;7.45;;
25553;SDS011;13446;50.926;5.332;2024-03-06T01:08:58;12.90;;;7.20;;
25553;SDS011;13446;50.926;5.332;2024-03-06T01:11:24;10.77;;;7.25;;
25553;SDS011;13446;50.926;5.332;2024-03-06T01:13:51;12.13;;;7.95;;
25553;SDS011;13446;50.926;5.332;2024-03-06T01:16:17;11.80;;;7.63;;
25553;SDS011;13446;50.926;5.332;2024-03-06T01:18:43;11.07;;;7.50;;
25553;SDS011;13446;50.926;5.332;2024-03-06T01:21:09;14.52;;;8.15;;
25553;SDS011;13446;50.926;5.332;2024-03-06T01:23:35;13.18;;;7.65;;
25553;SDS011;13446;50.926;5.332;2024-03-06T01:26:00;9.43;;;7.45;;
25553;SDS011;13446;50.926;5.332;2024-03-06T01:28:26;11.30;;;7.78;;
25553;SDS011;13446;50.926;5.332;2024-03-06T01:30:52;13.57;;;7.78;;
25553;SDS011;13446;50.926;5.332;2024-03-06T01:33:18;11.73;;;7.80;;
25553;SDS011;13446;50.926;5.332;2024-03-06T01:35:44;13.52;;;7.90;;
25553;SDS011;13446;50.926;5.332;2024-03-06T01:38:09;13.75;;;8.05;;
25553;SDS011;13446;50.926;5.332;2024-03-06T01:40:35;17.35;;;8.43;;
25553;SDS011;13446;50.926;5.332;2024-03-06T01:43:01;12.68;;;7.55;;
25553;SDS011;13446;50.926;5.332;2024-03-06T01:45:27;12.63;;;8.43;;
25553;SDS011;13446;50.926;5.332;2024-03-06T01:47:52;12.20;;;8.00;;
25553;SDS011;13446;50.926;5.332;2024-03-06T01:50:18;12.75;;;8.13;;
25553;SDS011;13446;50.926;5.332;2024-03-06T01:52:44;13.20;;;8.02;;
25553;SDS011;13446;50.926;5.332;2024-03-06T01:55:12;14.13;;;7.93;;
25553;SDS011;13446;50.926;5.332;2024-03-06T01:57:40;16.75;;;8.30;;
25553;SDS011;13446;50.926;5.332;2024-03-06T02:00:07;12.43;;;8.20;;
25553;SDS011;13446;50.926;5.332;2024-03-06T02:02:38;12.18;;;8.05;;
25553;SDS011;13446;50.926;5.332;2024-03-06T02:05:06;12.52;;;7.95;;
25553;SDS011;13446;50.926;5.332;2024-03-06T02:07:32;17.52;;;7.13;;
25553;SDS011;13446;50.926;5.332;2024-03-06T02:09:58;13.70;;;7.25;;
25553;SDS011;13446;50.926;5.332;2024-03-06T02:12:24;11.02;;;7.25;;
25553;SDS011;13446;50.926;5.332;2024-03-06T02:14:49;12.30;;;6.85;;
25553;SDS011;13446;50.926;5.332;2024-03-06T02:17:15;10.27;;;6.43;;
25553;SDS011;13446;50.926;5.332;2024-03-06T02:19:41;11.60;;;6.63;;
25553;SDS011;13446;50.926;5.332;2024-03-06T02:22:08;10.93;;;6.22;;
25553;SDS011;13446;50.926;5.332;2024-03-06T02:24:35;13.05;;;6.22;;
25553;SDS011;13446;50.926;5.332;2024-03-06T02:27:02;9.32;;;6.00;;
25553;SDS011;13446;50.926;5.332;2024-03-06T02:29:31;8.45;;;6.03;;
25553;SDS011;13446;50.926;5.332;2024-03-06T02:31:57;14.27;;;6.53;;
25553;SDS011;13446;50.926;5.332;2024-03-06T02:34:23;10.95;;;6.10;;
25553;SDS011;13446;50.926;5.332;2024-03-06T02:36:50;12.07;;;5.80;;
25553;SDS011;13446;50.926;5.332;2024-03-06T02:39:17;12.40;;;6.70;;
25553;SDS011;13446;50.926;5.332;2024-03-06T02:41:42;11.57;;;6.28;;
25553;SDS011;13446;50.926;5.332;2024-03-06T02:44:08;10.43;;;6.18;;
25553;SDS011;13446;50.926;5.332;2024-03-06T02:46:34;11.88;;;6.38;;
25553;SDS011;13446;50.926;5.332;2024-03-06T02:49:00;10.73;;;6.43;;
25553;SDS011;13446;50.926;5.332;2024-03-06T02:51:26;12.45;;;6.10;;
25553;SDS011;13446;50.926;5.332;2024-03-06T02:53:51;10.48;;;6.10;;
25553;SDS011;13446;50.926;5.332;2024-03-06T02:56:18;10.20;;;5.82;;
25553;SDS011;13446;50.926;5.332;2024-03-06T02:58:44;8.45;;;5.82;;
25553;SDS011;13446;50.926;5.332;2024-03-06T03:01:10;10.63;;;5.93;;
25553;SDS011;13446;50.926;5.332;2024-03-06T03:03:39;11.60;;;6.32;;
25553;SDS011;13446;50.926;5.332;2024-03-06T03:06:06;13.90;;;6.07;;
25553;SDS011;13446;50.926;5.332;2024-03-06T03:08:32;9.55;;;5.75;;
25553;SDS011;13446;50.926;5.332;2024-03-06T03:10:58;10.57;;;5.53;;
25553;SDS011;13446;50.926;5.332;2024-03-06T03:13:24;11.50;;;6.10;;
25553;SDS011;13446;50.926;5.332;2024-03-06T03:15:49;10.02;;;6.40;;
25553;SDS011;13446;50.926;5.332;2024-03-06T03:18:16;11.07;;;6.05;;
25553;SDS011;13446;50.926;5.332;2024-03-06T03:20:42;12.40;;;6.28;;
25553;SDS011;13446;50.926;5.332;2024-03-06T03:23:07;14.98;;;5.85;;
25553;SDS011;13446;50.926;5.332;2024-03-06T03:25:36;12.07;;;6.07;;
25553;SDS011;13446;50.926;5.332;2024-03-06T03:28:03;13.55;;;5.95;;
25553;SDS011;13446;50.926;5.332;2024-03-06T03:30:29;10.95;;;6.00;;
25553;SDS011;13446;50.926;5.332;2024-03-06T03:32:57;11.30;;;6.38;;
25553;SDS011;13446;50.926;5.332;2024-03-06T03:35:22;11.77;;;6.10;;
25553;SDS011;13446;50.926;5.332;2024-03-06T03:37:53;13.68;;;6.63;;
25553;SDS011;13446;50.926;5.332;2024-03-06T03:40:20;10.20;;;5.88;;
25553;SDS011;13446;50.926;5.332;2024-03-06T03:42:46;14.70;;;6.28;;
25553;SDS011;13446;50.926;5.332;2024-03-06T03:45:12;13.02;;;6.68;;
25553;SDS011;13446;50.926;5.332;2024-03-06T03:47:38;16.98;;;6.57;;
25553;SDS011;13446;50.926;5.332;2024-03-06T03:50:05;11.40;;;5.88;;
25553;SDS011;13446;50.926;5.332;2024-03-06T03:52:31;9.43;;;6.28;;
25553;SDS011;13446;50.926;5.332;2024-03-06T03:54:56;10.40;;;6.35;;
25553;SDS011;13446;50.926;5.332;2024-03-06T03:57:22;13.00;;;6.55;;
25553;SDS011;13446;50.926;5.332;2024-03-06T03:59:48;12.43;;;6.95;;
25553;SDS011;13446;50.926;5.332;2024-03-06T04:02:13;10.10;;;6.07;;
25553;SDS011;13446;50.926;5.332;2024-03-06T04:04:39;11.93;;;7.15;;
25553;SDS011;13446;50.926;5.332;2024-03-06T04:07:05;13.18;;;6.22;;
25553;SDS011;13446;50.926;5.332;2024-03-06T04:09:32;10.57;;;6.55;;
25553;SDS011;13446;50.926;5.332;2024-03-06T04:14:27;12.85;;;6.20;;
25553;SDS011;13446;50.926;5.332;2024-03-06T04:16:52;11.07;;;6.43;;
25553;SDS011;13446;50.926;5.332;2024-03-06T04:19:18;13.75;;;6.85;;
25553;SDS011;13446;50.926;5.332;2024-03-06T04:21:44;11.70;;;6.68;;
25553;SDS011;13446;50.926;5.332;2024-03-06T04:24:09;9.30;;;6.57;;
25553;SDS011;13446;50.926;5.332;2024-03-06T04:26:35;8.90;;;6.43;;
25553;SDS011;13446;50.926;5.332;2024-03-06T04:29:01;8.80;;;6.20;;
25553;SDS011;13446;50.926;5.332;2024-03-06T04:31:28;11.48;;;6.78;;
25553;SDS011;13446;50.926;5.332;2024-03-06T04:33:54;10.55;;;6.50;;
25553;SDS011;13446;50.926;5.332;2024-03-06T04:36:19;14.00;;;7.53;;
25553;SDS011;13446;50.926;5.332;2024-03-06T04:38:45;16.98;;;8.30;;
25553;SDS011;13446;50.926;5.332;2024-03-06T04:41:11;12.93;;;8.00;;
25553;SDS011;13446;50.926;5.332;2024-03-06T04:43:37;14.80;;;8.50;;
25553;SDS011;13446;50.926;5.332;2024-03-06T04:46:03;16.20;;;8.73;;
25553;SDS011;13446;50.926;5.332;2024-03-06T04:48:29;13.80;;;7.97;;
25553;SDS011;13446;50.926;5.332;2024-03-06T04:50:55;14.52;;;8.00;;
25553;SDS011;13446;50.926;5.332;2024-03-06T04:53:21;17.90;;;9.20;;
25553;SDS011;13446;50.926;5.332;2024-03-06T04:55:46;15.68;;;8.00;;
25553;SDS011;13446;50.926;5.332;2024-03-06T04:58:12;16.75;;;8.38;;
25553;SDS011;13446;50.926;5.332;2024-03-06T05:00:38;13.75;;;8.02;;
25553;SDS011;13446;50.926;5.332;2024-03-06T05:03:04;13.38;;;8.55;;
25553;SDS011;13446;50.926;5.332;2024-03-06T05:05:30;19.10;;;8.73;;
25553;SDS011;13446;50.926;5.332;2024-03-06T05:07:55;14.38;;;8.27;;
25553;SDS011;13446;50.926;5.332;2024-03-06T05:10:22;17.30;;;8.48;;
25553;SDS011;13446;50.926;5.332;2024-03-06T05:12:48;15.82;;;7.93;;
25553;SDS011;13446;50.926;5.332;2024-03-06T05:15:13;11.20;;;7.82;;
25553;SDS011;13446;50.926;5.332;2024-03-06T05:17:39;13.93;;;8.50;;
25553;SDS011;13446;50.926;5.332;2024-03-06T05:20:05;15.55;;;8.45;;
25553;SDS011;13446;50.926;5.332;2024-03-06T05:22:31;15.55;;;8.05;;
25553;SDS011;13446;50.926;5.332;2024-03-06T05:24:58;12.32;;;8.10;;
25553;SDS011;13446;50.926;5.332;2024-03-06T05:27:25;13.15;;;7.78;;
25553;SDS011;13446;50.926;5.332;2024-03-06T05:29:51;15.88;;;8.38;;
25553;SDS011;13446;50.926;5.332;2024-03-06T05:32:17;13.70;;;8.20;;
25553;SDS011;13446;50.926;5.332;2024-03-06T05:34:42;13.90;;;7.57;;
25553;SDS011;13446;50.926;5.332;2024-03-06T05:37:09;13.80;;;8.25;;
25553;SDS011;13446;50.926;5.332;2024-03-06T05:39:35;11.98;;;8.10;;
25553;SDS011;13446;50.926;5.332;2024-03-06T05:42:02;13.57;;;7.65;;
25553;SDS011;13446;50.926;5.332;2024-03-06T05:44:30;12.60;;;7.72;;
25553;SDS011;13446;50.926;5.332;2024-03-06T05:47:00;11.57;;;7.05;;
25553;SDS011;13446;50.926;5.332;2024-03-06T05:49:26;12.20;;;7.70;;
25553;SDS011;13446;50.926;5.332;2024-03-06T05:51:53;12.00;;;8.65;;
25553;SDS011;13446;50.926;5.332;2024-03-06T05:54:22;12.55;;;8.15;;
25553;SDS011;13446;50.926;5.332;2024-03-06T05:56:48;12.02;;;6.10;;
25553;SDS011;13446;50.926;5.332;2024-03-06T05:59:16;14.07;;;8.30;;
25553;SDS011;13446;50.926;5.332;2024-03-06T06:01:42;12.32;;;7.82;;
25553;SDS011;13446;50.926;5.332;2024-03-06T06:04:09;15.45;;;7.78;;
25553;SDS011;13446;50.926;5.332;2024-03-06T06:06:35;16.63;;;8.35;;
25553;SDS011;13446;50.926;5.332;2024-03-06T06:09:01;10.93;;;7.80;;
25553;SDS011;13446;50.926;5.332;2024-03-06T06:11:30;15.13;;;8.32;;
25553;SDS011;13446;50.926;5.332;2024-03-06T06:13:57;15.35;;;8.38;;
25553;SDS011;13446;50.926;5.332;2024-03-06T06:16:22;11.68;;;8.27;;
25553;SDS011;13446;50.926;5.332;2024-03-06T06:18:48;17.02;;;7.95;;
25553;SDS011;13446;50.926;5.332;2024-03-06T06:21:14;16.45;;;8.60;;
25553;SDS011;13446;50.926;5.332;2024-03-06T06:23:41;15.77;;;7.95;;
25553;SDS011;13446;50.926;5.332;2024-03-06T06:26:07;15.75;;;7.97;;
25553;SDS011;13446;50.926;5.332;2024-03-06T06:28:35;13.23;;;8.07;;
25553;SDS011;13446;50.926;5.332;2024-03-06T06:31:02;14.32;;;7.82;;
25553;SDS011;13446;50.926;5.332;2024-03-06T06:33:30;18.95;;;8.63;;
25553;SDS011;13446;50.926;5.332;2024-03-06T06:35:56;23.88;;;7.75;;
25553;SDS011;13446;50.926;5.332;2024-03-06T06:38:22;19.90;;;8.95;;
25553;SDS011;13446;50.926;5.332;2024-03-06T06:40:47;14.55;;;8.57;;
25553;SDS011;13446;50.926;5.332;2024-03-06T06:43:13;15.13;;;7.38;;
25553;SDS011;13446;50.926;5.332;2024-03-06T06:45:40;14.35;;;7.60;;
25553;SDS011;13446;50.926;5.332;2024-03-06T06:48:06;16.83;;;8.38;;
25553;SDS011;13446;50.926;5.332;2024-03-06T06:50:32;14.48;;;8.70;;
25553;SDS011;13446;50.926;5.332;2024-03-06T06:52:58;10.82;;;7.50;;
25553;SDS011;13446;50.926;5.332;2024-03-06T06:55:25;15.70;;;7.68;;
25553;SDS011;13446;50.926;5.332;2024-03-06T06:57:51;14.55;;;7.35;;
25553;SDS011;13446;50.926;5.332;2024-03-06T07:00:17;13.60;;;7.70;;
25553;SDS011;13446;50.926;5.332;2024-03-06T07:02:43;12.80;;;7.72;;
25553;SDS011;13446;50.926;5.332;2024-03-06T07:05:10;16.05;;;7.55;;
25553;SDS011;13446;50.926;5.332;2024-03-06T07:07:36;12.77;;;7.60;;
25553;SDS011;13446;50.926;5.332;2024-03-06T07:10:03;16.05;;;8.20;;
25553;SDS011;13446;50.926;5.332;2024-03-06T07:12:32;17.75;;;7.90;;
25553;SDS011;13446;50.926;5.332;2024-03-06T07:14:58;11.05;;;7.43;;
25553;SDS011;13446;50.926;5.332;2024-03-06T07:17:30;12.27;;;7.50;;
25553;SDS011;13446;50.926;5.332;2024-03-06T07:19:55;14.82;;;6.80;;
25553;SDS011;13446;50.926;5.332;2024-03-06T07:22:21;9.90;;;6.10;;
25553;SDS011;13446;50.926;5.332;2024-03-06T07:24:48;9.23;;;5.18;;
25553;SDS011;13446;50.926;5.332;2024-03-06T07:27:13;12.27;;;5.15;;
25553;SDS011;13446;50.926;5.332;2024-03-06T07:29:39;9.07;;;4.72;;
25553;SDS011;13446;50.926;5.332;2024-03-06T07:32:05;7.65;;;4.60;;
25553;SDS011;13446;50.926;5.332;2024-03-06T07:34:31;6.80;;;4.75;;
25553;SDS011;13446;50.926;5.332;2024-03-06T07:36:58;12.65;;;4.75;;
25553;SDS011;13446;50.926;5.332;2024-03-06T07:39:24;9.07;;;5.05;;
25553;SDS011;13446;50.926;5.332;2024-03-06T07:41:51;8.38;;;4.90;;
25553;SDS011;13446;50.926;5.332;2024-03-06T07:44:17;8.70;;;4.40;;
25553;SDS011;13446;50.926;5.332;2024-03-06T07:46:42;10.23;;;4.63;;
25553;SDS011;13446;50.926;5.332;2024-03-06T07:49:08;8.77;;;4.75;;
25553;SDS011;13446;50.926;5.332;2024-03-06T07:51:34;10.60;;;4.35;;
25553;SDS011;13446;50.926;5.332;2024-03-06T07:54:00;7.18;;;4.43;;
25553;SDS011;13446;50.926;5.332;2024-03-06T07:56:29;9.23;;;4.45;;
25553;SDS011;13446;50.926;5.332;2024-03-06T07:58:55;6.68;;;3.80;;
25553;SDS011;13446;50.926;5.332;2024-03-06T08:01:21;8.63;;;4.38;;
25553;SDS011;13446;50.926;5.332;2024-03-06T08:03:47;9.38;;;4.22;;
25553;SDS011;13446;50.926;5.332;2024-03-06T08:06:13;11.85;;;4.63;;
25553;SDS011;13446;50.926;5.332;2024-03-06T08:08:42;7.60;;;4.53;;
25553;SDS011;13446;50.926;5.332;2024-03-06T08:11:09;10.93;;;4.15;;
25553;SDS011;13446;50.926;5.332;2024-03-06T08:13:38;6.70;;;3.85;;
25553;SDS011;13446;50.926;5.332;2024-03-06T08:16:04;8.15;;;3.58;;
25553;SDS011;13446;50.926;5.332;2024-03-06T08:18:30;5.93;;;3.65;;
25553;SDS011;13446;50.926;5.332;2024-03-06T08:20:57;4.80;;;3.33;;
25553;SDS011;13446;50.926;5.332;2024-03-06T08:23:23;8.05;;;3.50;;
25553;SDS011;13446;50.926;5.332;2024-03-06T08:25:50;6.28;;;3.35;;
25553;SDS011;13446;50.926;5.332;2024-03-06T08:28:16;6.90;;;3.28;;
25553;SDS011;13446;50.926;5.332;2024-03-06T08:30:41;9.35;;;3.75;;
25553;SDS011;13446;50.926;5.332;2024-03-06T08:33:09;3.67;;;3.30;;
25553;SDS011;13446;50.926;5.332;2024-03-06T08:35:35;6.43;;;3.42;;
25553;SDS011;13446;50.926;5.332;2024-03-06T08:38:01;6.75;;;3.72;;
25553;SDS011;13446;50.926;5.332;2024-03-06T08:40:26;7.68;;;3.45;;
25553;SDS011;13446;50.926;5.332;2024-03-06T08:42:53;7.78;;;3.70;;
25553;SDS011;13446;50.926;5.332;2024-03-06T08:45:19;7.90;;;3.60;;
25553;SDS011;13446;50.926;5.332;2024-03-06T08:47:45;5.50;;;3.40;;
25553;SDS011;13446;50.926;5.332;2024-03-06T08:50:12;5.10;;;3.20;;
25553;SDS011;13446;50.926;5.332;2024-03-06T08:52:38;6.43;;;3.05;;
25553;SDS011;13446;50.926;5.332;2024-03-06T08:55:04;8.10;;;3.28;;
25553;SDS011;13446;50.926;5.332;2024-03-06T08:57:32;8.02;;;3.80;;
25553;SDS011;13446;50.926;5.332;2024-03-06T09:00:01;8.05;;;3.25;;
25553;SDS011;13446;50.926;5.332;2024-03-06T09:02:28;6.90;;;4.63;;
25553;SDS011;13446;50.926;5.332;2024-03-06T09:04:54;4.82;;;3.35;;
25553;SDS011;13446;50.926;5.332;2024-03-06T09:07:20;8.07;;;3.55;;
25553;SDS011;13446;50.926;5.332;2024-03-06T09:09:49;6.97;;;3.20;;
25553;SDS011;13446;50.926;5.332;2024-03-06T09:12:15;11.50;;;3.78;;
25553;SDS011;13446;50.926;5.332;2024-03-06T09:14:41;5.75;;;3.08;;
25553;SDS011;13446;50.926;5.332;2024-03-06T09:17:07;8.63;;;3.20;;
25553;SDS011;13446;50.926;5.332;2024-03-06T09:19:38;7.35;;;3.22;;
25553;SDS011;13446;50.926;5.332;2024-03-06T09:22:03;6.03;;;3.38;;
25553;SDS011;13446;50.926;5.332;2024-03-06T09:24:29;5.85;;;3.83;;
25553;SDS011;13446;50.926;5.332;2024-03-06T09:26:55;7.57;;;3.65;;
25553;SDS011;13446;50.926;5.332;2024-03-06T09:29:21;8.70;;;3.30;;
25553;SDS011;13446;50.926;5.332;2024-03-06T09:31:46;8.20;;;3.45;;
25553;SDS011;13446;50.926;5.332;2024-03-06T09:34:13;5.65;;;3.03;;
25553;SDS011;13446;50.926;5.332;2024-03-06T09:36:45;5.55;;;3.33;;
25553;SDS011;13446;50.926;5.332;2024-03-06T09:39:12;6.07;;;3.20;;
25553;SDS011;13446;50.926;5.332;2024-03-06T09:41:45;6.32;;;4.03;;
25553;SDS011;13446;50.926;5.332;2024-03-06T09:44:12;4.93;;;3.33;;
25553;SDS011;13446;50.926;5.332;2024-03-06T09:46:45;5.78;;;3.35;;
25553;SDS011;13446;50.926;5.332;2024-03-06T09:49:12;9.13;;;3.55;;
25553;SDS011;13446;50.926;5.332;2024-03-06T09:51:41;6.65;;;3.72;;
25553;SDS011;13446;50.926;5.332;2024-03-06T09:54:14;6.40;;;3.55;;
25553;SDS011;13446;50.926;5.332;2024-03-06T09:56:44;5.35;;;3.33;;
25553;SDS011;13446;50.926;5.332;2024-03-06T09:59:10;5.78;;;3.30;;
25553;SDS011;13446;50.926;5.332;2024-03-06T10:01:41;10.60;;;3.35;;
25553;SDS011;13446;50.926;5.332;2024-03-06T10:06:48;5.20;;;3.58;;
25553;SDS011;13446;50.926;5.332;2024-03-06T10:09:17;7.43;;;3.70;;
25553;SDS011;13446;50.926;5.332;2024-03-06T10:11:44;9.27;;;3.75;;
25553;SDS011;13446;50.926;5.332;2024-03-06T10:14:09;9.15;;;3.95;;
25553;SDS011;13446;50.926;5.332;2024-03-06T10:16:36;8.45;;;3.40;;
25553;SDS011;13446;50.926;5.332;2024-03-06T10:19:14;4.72;;;3.20;;
25553;SDS011;13446;50.926;5.332;2024-03-06T10:21:44;8.43;;;3.58;;
25553;SDS011;13446;50.926;5.332;2024-03-06T10:26:56;10.63;;;3.65;;
25553;SDS011;13446;50.926;5.332;2024-03-06T10:29:26;13.65;;;4.60;;
25553;SDS011;13446;50.926;5.332;2024-03-06T10:31:55;7.30;;;3.67;;
25553;SDS011;13446;50.926;5.332;2024-03-06T10:36:53;5.07;;;3.00;;
25553;SDS011;13446;50.926;5.332;2024-03-06T10:39:20;15.43;;;3.53;;
25553;SDS011;13446;50.926;5.332;2024-03-06T10:41:49;5.78;;;3.42;;
25553;SDS011;13446;50.926;5.332;2024-03-06T10:44:17;9.45;;;3.88;;
25553;SDS011;13446;50.926;5.332;2024-03-06T10:47:03;5.65;;;3.53;;
25553;SDS011;13446;50.926;5.332;2024-03-06T10:49:31;6.95;;;3.50;;
25553;SDS011;13446;50.926;5.332;2024-03-06T10:54:29;6.45;;;3.67;;
25553;SDS011;13446;50.926;5.332;2024-03-06T10:56:57;10.75;;;4.38;;
25553;SDS011;13446;50.926;5.332;2024-03-06T10:59:27;8.25;;;4.22;;
25553;SDS011;13446;50.926;5.332;2024-03-06T11:01:57;11.32;;;4.30;;
25553;SDS011;13446;50.926;5.332;2024-03-06T11:04:26;8.95;;;3.97;;
25553;SDS011;13446;50.926;5.332;2024-03-06T11:06:59;6.82;;;3.83;;
25553;SDS011;13446;50.926;5.332;2024-03-06T11:09:26;9.98;;;3.75;;
25553;SDS011;13446;50.926;5.332;2024-03-06T11:11:53;8.13;;;3.92;;
25553;SDS011;13446;50.926;5.332;2024-03-06T11:14:21;5.80;;;3.60;;
25553;SDS011;13446;50.926;5.332;2024-03-06T11:17:04;8.85;;;3.63;;
25553;SDS011;13446;50.926;5.332;2024-03-06T11:19:32;7.15;;;3.80;;
25553;SDS011;13446;50.926;5.332;2024-03-06T11:22:17;7.63;;;3.67;;
25553;SDS011;13446;50.926;5.332;2024-03-06T11:24:43;6.80;;;4.28;;
25553;SDS011;13446;50.926;5.332;2024-03-06T11:27:09;8.30;;;3.83;;
25553;SDS011;13446;50.926;5.332;2024-03-06T11:32:57;8.27;;;3.55;;
25553;SDS011;13446;50.926;5.332;2024-03-06T11:35:24;10.65;;;4.05;;
25553;SDS011;13446;50.926;5.332;2024-03-06T11:37:49;8.40;;;4.10;;
25553;SDS011;13446;50.926;5.332;2024-03-06T11:40:22;8.75;;;4.38;;
25553;SDS011;13446;50.926;5.332;2024-03-06T11:42:52;10.07;;;4.03;;
25553;SDS011;13446;50.926;5.332;2024-03-06T11:45:18;8.80;;;4.13;;
25553;SDS011;13446;50.926;5.332;2024-03-06T11:48:00;12.27;;;4.37;;
25553;SDS011;13446;50.926;5.332;2024-03-06T11:50:27;7.93;;;4.13;;
25553;SDS011;13446;50.926;5.332;2024-03-06T11:52:55;7.57;;;4.10;;
25553;SDS011;13446;50.926;5.332;2024-03-06T11:55:21;6.43;;;4.20;;
25553;SDS011;13446;50.926;5.332;2024-03-06T11:57:47;8.63;;;3.83;;
25553;SDS011;13446;50.926;5.332;2024-03-06T12:00:13;7.28;;;3.65;;
25553;SDS011;13446;50.926;5.332;2024-03-06T12:02:40;7.82;;;3.85;;
25553;SDS011;13446;50.926;5.332;2024-03-06T12:05:06;6.57;;;3.63;;
25553;SDS011;13446;50.926;5.332;2024-03-06T12:07:44;9.68;;;4.43;;
25553;SDS011;13446;50.926;5.332;2024-03-06T12:10:13;7.75;;;3.53;;
25553;SDS011;13446;50.926;5.332;2024-03-06T12:12:42;6.68;;;3.92;;
25553;SDS011;13446;50.926;5.332;2024-03-06T12:15:09;9.70;;;3.67;;
25553;SDS011;13446;50.926;5.332;2024-03-06T12:17:46;7.38;;;4.20;;
25553;SDS011;13446;50.926;5.332;2024-03-06T12:20:16;6.68;;;3.88;;
25553;SDS011;13446;50.926;5.332;2024-03-06T12:22:43;4.72;;;3.55;;
25553;SDS011;13446;50.926;5.332;2024-03-06T12:25:10;7.65;;;3.28;;
25553;SDS011;13446;50.926;5.332;2024-03-06T12:27:35;4.68;;;3.25;;
25553;SDS011;13446;50.926;5.332;2024-03-06T12:30:01;5.22;;;3.55;;
25553;SDS011;13446;50.926;5.332;2024-03-06T12:32:33;7.32;;;3.47;;
25553;SDS011;13446;50.926;5.332;2024-03-06T12:34:59;6.38;;;2.88;;
25553;SDS011;13446;50.926;5.332;2024-03-06T12:37:28;6.90;;;2.30;;
25553;SDS011;13446;50.926;5.332;2024-03-06T12:39:56;6.25;;;2.53;;
25553;SDS011;13446;50.926;5.332;2024-03-06T12:42:22;6.57;;;3.00;;
25553;SDS011;13446;50.926;5.332;2024-03-06T12:44:49;7.28;;;3.00;;
25553;SDS011;13446;50.926;5.332;2024-03-06T12:47:15;4.55;;;2.60;;
25553;SDS011;13446;50.926;5.332;2024-03-06T12:49:41;4.35;;;2.88;;
25553;SDS011;13446;50.926;5.332;2024-03-06T12:52:06;3.90;;;2.42;;
25553;SDS011;13446;50.926;5.332;2024-03-06T12:54:32;6.05;;;2.75;;
25553;SDS011;13446;50.926;5.332;2024-03-06T12:56:58;10.38;;;2.85;;
25553;SDS011;13446;50.926;5.332;2024-03-06T12:59:23;6.43;;;3.03;;
25553;SDS011;13446;50.926;5.332;2024-03-06T13:01:49;6.68;;;3.03;;
25553;SDS011;13446;50.926;5.332;2024-03-06T13:04:15;4.28;;;2.90;;
25553;SDS011;13446;50.926;5.332;2024-03-06T13:06:41;4.53;;;2.63;;
25553;SDS011;13446;50.926;5.332;2024-03-06T13:09:07;9.35;;;3.42;;
25553;SDS011;13446;50.926;5.332;2024-03-06T13:11:33;4.55;;;2.83;;
25553;SDS011;13446;50.926;5.332;2024-03-06T13:13:58;5.18;;;2.65;;
25553;SDS011;13446;50.926;5.332;2024-03-06T13:16:26;6.28;;;3.17;;
25553;SDS011;13446;50.926;5.332;2024-03-06T13:18:52;6.60;;;2.70;;
25553;SDS011;13446;50.926;5.332;2024-03-06T13:21:20;4.22;;;2.42;;
25553;SDS011;13446;50.926;5.332;2024-03-06T13:23:45;4.70;;;2.50;;
25553;SDS011;13446;50.926;5.332;2024-03-06T13:26:11;3.78;;;2.40;;
25553;SDS011;13446;50.926;5.332;2024-03-06T13:28:38;3.30;;;2.22;;
25553;SDS011;13446;50.926;5.332;2024-03-06T13:31:04;3.67;;;2.05;;
25553;SDS011;13446;50.926;5.332;2024-03-06T13:33:33;4.28;;;2.30;;
25553;SDS011;13446;50.926;5.332;2024-03-06T13:35:59;5.15;;;2.60;;
25553;SDS011;13446;50.926;5.332;2024-03-06T13:38:24;5.13;;;2.50;;
25553;SDS011;13446;50.926;5.332;2024-03-06T13:40:51;6.60;;;2.70;;
25553;SDS011;13446;50.926;5.332;2024-03-06T13:43:17;6.50;;;2.72;;
25553;SDS011;13446;50.926;5.332;2024-03-06T13:45:48;8.00;;;2.17;;
25553;SDS011;13446;50.926;5.332;2024-03-06T13:48:15;4.40;;;2.13;;
25553;SDS011;13446;50.926;5.332;2024-03-06T13:50:42;2.95;;;1.95;;
25553;SDS011;13446;50.926;5.332;2024-03-06T13:53:09;4.28;;;2.20;;
25553;SDS011;13446;50.926;5.332;2024-03-06T13:55:35;4.40;;;2.30;;
25553;SDS011;13446;50.926;5.332;2024-03-06T13:58:03;3.45;;;2.08;;
25553;SDS011;13446;50.926;5.332;2024-03-06T14:00:29;6.97;;;2.63;;
25553;SDS011;13446;50.926;5.332;2024-03-06T14:02:55;4.72;;;2.58;;
25553;SDS011;13446;50.926;5.332;2024-03-06T14:05:21;5.70;;;2.63;;
25553;SDS011;13446;50.926;5.332;2024-03-06T14:07:50;5.70;;;2.30;;
25553;SDS011;13446;50.926;5.332;2024-03-06T14:10:16;6.38;;;2.65;;
25553;SDS011;13446;50.926;5.332;2024-03-06T14:12:44;4.35;;;2.20;;
25553;SDS011;13446;50.926;5.332;2024-03-06T14:15:10;6.38;;;2.20;;
25553;SDS011;13446;50.926;5.332;2024-03-06T14:17:41;6.05;;;2.85;;
25553;SDS011;13446;50.926;5.332;2024-03-06T14:20:07;4.93;;;2.33;;
25553;SDS011;13446;50.926;5.332;2024-03-06T14:22:35;4.10;;;2.50;;
25553;SDS011;13446;50.926;5.332;2024-03-06T14:25:00;5.13;;;2.58;;
25553;SDS011;13446;50.926;5.332;2024-03-06T14:27:26;8.20;;;2.40;;
25553;SDS011;13446;50.926;5.332;2024-03-06T14:29:52;6.18;;;2.15;;
25553;SDS011;13446;50.926;5.332;2024-03-06T14:32:19;4.78;;;2.15;;
25553;SDS011;13446;50.926;5.332;2024-03-06T14:34:45;3.35;;;1.98;;
25553;SDS011;13446;50.926;5.332;2024-03-06T14:37:11;4.20;;;1.65;;
25553;SDS011;13446;50.926;5.332;2024-03-06T14:39:37;4.90;;;1.77;;
25553;SDS011;13446;50.926;5.332;2024-03-06T14:42:03;6.18;;;1.90;;
25553;SDS011;13446;50.926;5.332;2024-03-06T14:44:29;3.83;;;1.75;;
25553;SDS011;13446;50.926;5.332;2024-03-06T14:46:56;6.45;;;2.05;;
25553;SDS011;13446;50.926;5.332;2024-03-06T14:49:22;3.22;;;1.80;;
25553;SDS011;13446;50.926;5.332;2024-03-06T14:51:47;4.30;;;1.83;;
25553;SDS011;13446;50.926;5.332;2024-03-06T14:54:13;2.90;;;1.80;;